sensor_id;sensor_type;location;lat;lon;timestamp;pressure;altitude;pressure_sealevel;temperature;humidity
67740;BME280;54536;50.090;14.420;2023-07-20T00:02:16;98930.53;;;23.56;44.91
67740;BME280;54536;50.090;14.420;2023-07-20T00:04:43;98941.28;;;23.68;44.86
67740;BME280;54536;50.090;14.420;2023-07-20T00:07:09;98943.94;;;23.56;45.11
67740;BME280;54536;50.090;14.420;2023-07-20T00:09:36;98952.03;;;23.68;44.42
67740;BME280;54536;50.090;14.420;2023-07-20T00:12:02;98958.34;;;23.73;44.48
67740;BME280;54536;50.090;14.420;2023-07-20T00:14:28;98969.53;;;23.70;44.32
67740;BME280;54536;50.090;14.420;2023-07-20T00:16:56;98968.16;;;23.79;44.32
67740;BME280;54536;50.090;14.420;2023-07-20T00:19:24;98975.41;;;23.79;43.92
67740;BME280;54536;50.090;14.420;2023-07-20T00:21:51;98969.16;;;23.67;44.14
67740;BME280;54536;50.090;14.420;2023-07-20T00:24:17;98974.91;;;23.70;44.43
67740;BME280;54536;50.090;14.420;2023-07-20T00:26:44;98968.13;;;23.68;44.57
67740;BME280;54536;50.090;14.420;2023-07-20T00:29:11;98960.91;;;23.68;44.18
67740;BME280;54536;50.090;14.420;2023-07-20T00:31:37;98957.56;;;23.43;44.88
67740;BME280;54536;50.090;14.420;2023-07-20T00:34:04;98958.63;;;23.42;44.74
67740;BME280;54536;50.090;14.420;2023-07-20T00:36:30;98963.50;;;23.33;45.28
67740;BME280;54536;50.090;14.420;2023-07-20T00:38:56;98971.81;;;23.43;44.99
67740;BME280;54536;50.090;14.420;2023-07-20T00:41:23;98956.63;;;23.37;45.22
67740;BME280;54536;50.090;14.420;2023-07-20T00:43:50;98948.13;;;23.40;44.98
67740;BME280;54536;50.090;14.420;2023-07-20T00:46:16;98945.78;;;23.44;44.78
67740;BME280;54536;50.090;14.420;2023-07-20T00:48:43;98959.06;;;23.27;45.45
67740;BME280;54536;50.090;14.420;2023-07-20T00:51:10;98961.38;;;23.23;45.63
67740;BME280;54536;50.090;14.420;2023-07-20T00:53:37;98963.16;;;23.29;45.51
67740;BME280;54536;50.090;14.420;2023-07-20T00:56:04;98969.47;;;23.35;45.35
67740;BME280;54536;50.090;14.420;2023-07-20T00:58:31;98973.78;;;23.36;45.25
67740;BME280;54536;50.090;14.420;2023-07-20T01:01:00;98966.13;;;23.09;46.53
67740;BME280;54536;50.090;14.420;2023-07-20T01:03:26;98977.47;;;23.23;45.56
67740;BME280;54536;50.090;14.420;2023-07-20T01:06:27;98973.47;;;23.14;46.09
67740;BME280;54536;50.090;14.420;2023-07-20T01:09:17;98975.06;;;23.03;46.67
67740;BME280;54536;50.090;14.420;2023-07-20T01:14:29;98968.09;;;23.14;45.75
67740;BME280;54536;50.090;14.420;2023-07-20T01:16:56;98975.84;;;23.22;45.63
67740;BME280;54536;50.090;14.420;2023-07-20T01:19:22;98990.88;;;23.23;45.56
67740;BME280;54536;50.090;14.420;2023-07-20T01:30:41;98985.81;;;23.03;45.63
67740;BME280;54536;50.090;14.420;2023-07-20T01:33:13;98985.34;;;23.06;45.94
67740;BME280;54536;50.090;14.420;2023-07-20T01:35:43;98986.88;;;23.02;45.94
67740;BME280;54536;50.090;14.420;2023-07-20T01:38:13;98985.56;;;23.05;45.60
67740;BME280;54536;50.090;14.420;2023-07-20T01:40:40;98997.50;;;22.90;46.09
67740;BME280;54536;50.090;14.420;2023-07-20T01:43:07;99000.47;;;23.01;45.42
67740;BME280;54536;50.090;14.420;2023-07-20T01:45:33;98993.69;;;22.98;45.55
67740;BME280;54536;50.090;14.420;2023-07-20T01:47:59;99000.38;;;23.07;45.75
67740;BME280;54536;50.090;14.420;2023-07-20T01:50:25;99013.97;;;22.94;45.45
67740;BME280;54536;50.090;14.420;2023-07-20T01:52:51;99000.34;;;22.96;45.55
67740;BME280;54536;50.090;14.420;2023-07-20T01:55:17;98992.94;;;22.91;45.83
67740;BME280;54536;50.090;14.420;2023-07-20T01:57:43;98991.06;;;22.91;45.48
67740;BME280;54536;50.090;14.420;2023-07-20T02:00:10;98983.13;;;23.03;45.67
67740;BME280;54536;50.090;14.420;2023-07-20T02:02:37;98984.91;;;23.09;44.91
67740;BME280;54536;50.090;14.420;2023-07-20T02:05:03;98988.78;;;22.95;44.96
67740;BME280;54536;50.090;14.420;2023-07-20T02:09:56;98978.91;;;22.96;45.55
67740;BME280;54536;50.090;14.420;2023-07-20T02:12:22;98984.31;;;22.89;45.88
67740;BME280;54536;50.090;14.420;2023-07-20T02:14:48;98983.22;;;22.97;45.33
67740;BME280;54536;50.090;14.420;2023-07-20T02:17:17;98975.16;;;22.78;46.75
67740;BME280;54536;50.090;14.420;2023-07-20T02:22:09;98988.41;;;22.91;46.22
67740;BME280;54536;50.090;14.420;2023-07-20T02:24:35;98987.84;;;22.71;46.66
67740;BME280;54536;50.090;14.420;2023-07-20T02:27:01;98992.81;;;22.67;46.47
67740;BME280;54536;50.090;14.420;2023-07-20T02:29:28;98990.94;;;22.86;46.08
67740;BME280;54536;50.090;14.420;2023-07-20T02:31:54;98995.25;;;22.87;46.40
67740;BME280;54536;50.090;14.420;2023-07-20T02:34:20;98991.56;;;22.70;46.77
67740;BME280;54536;50.090;14.420;2023-07-20T02:36:46;98993.44;;;22.51;47.06
67740;BME280;54536;50.090;14.420;2023-07-20T02:39:14;98993.72;;;22.61;46.86
67740;BME280;54536;50.090;14.420;2023-07-20T02:41:41;98997.38;;;22.49;47.18
67740;BME280;54536;50.090;14.420;2023-07-20T02:44:07;99000.72;;;22.62;47.01
67740;BME280;54536;50.090;14.420;2023-07-20T02:46:33;98997.50;;;22.72;46.59
67740;BME280;54536;50.090;14.420;2023-07-20T02:49:01;98994.66;;;22.85;46.53
67740;BME280;54536;50.090;14.420;2023-07-20T02:51:27;98998.72;;;22.76;46.49
67740;BME280;54536;50.090;14.420;2023-07-20T02:53:56;99004.25;;;22.63;47.36
67740;BME280;54536;50.090;14.420;2023-07-20T02:56:22;98998.19;;;22.49;47.38
67740;BME280;54536;50.090;14.420;2023-07-20T02:58:49;99003.91;;;22.53;47.10
67740;BME280;54536;50.090;14.420;2023-07-20T03:01:16;99003.47;;;22.56;46.97
67740;BME280;54536;50.090;14.420;2023-07-20T03:03:42;98999.59;;;22.52;47.44
67740;BME280;54536;50.090;14.420;2023-07-20T03:06:13;99002.66;;;22.55;47.47
67740;BME280;54536;50.090;14.420;2023-07-20T03:08:42;99013.06;;;22.45;47.70
67740;BME280;54536;50.090;14.420;2023-07-20T03:11:11;99015.38;;;22.41;47.66
67740;BME280;54536;50.090;14.420;2023-07-20T03:13:37;99014.56;;;22.41;47.95
67740;BME280;54536;50.090;14.420;2023-07-20T03:16:03;99007.13;;;22.25;48.40
67740;BME280;54536;50.090;14.420;2023-07-20T03:18:30;99012.03;;;22.46;47.24
67740;BME280;54536;50.090;14.420;2023-07-20T03:20:56;99012.47;;;22.43;46.77
67740;BME280;54536;50.090;14.420;2023-07-20T03:23:22;99017.81;;;22.43;47.41
67740;BME280;54536;50.090;14.420;2023-07-20T03:25:48;99019.41;;;22.51;47.53
67740;BME280;54536;50.090;14.420;2023-07-20T03:28:15;99021.41;;;22.55;47.09
67740;BME280;54536;50.090;14.420;2023-07-20T03:30:41;99029.91;;;22.52;46.73
67740;BME280;54536;50.090;14.420;2023-07-20T03:33:08;99023.19;;;22.43;47.41
67740;BME280;54536;50.090;14.420;2023-07-20T03:35:34;99027.06;;;22.29;47.46
67740;BME280;54536;50.090;14.420;2023-07-20T03:38:00;99022.44;;;22.36;47.31
67740;BME280;54536;50.090;14.420;2023-07-20T03:40:26;99022.38;;;22.42;47.83
67740;BME280;54536;50.090;14.420;2023-07-20T03:42:53;99019.25;;;22.46;47.22
67740;BME280;54536;50.090;14.420;2023-07-20T03:45:19;99017.38;;;22.46;46.64
67740;BME280;54536;50.090;14.420;2023-07-20T03:47:45;99022.38;;;22.42;47.05
67740;BME280;54536;50.090;14.420;2023-07-20T03:50:12;99028.63;;;22.36;47.47
67740;BME280;54536;50.090;14.420;2023-07-20T03:52:39;99031.53;;;22.35;47.62
67740;BME280;54536;50.090;14.420;2023-07-20T03:55:05;99033.59;;;22.33;47.64
67740;BME280;54536;50.090;14.420;2023-07-20T03:57:32;99031.38;;;22.48;47.42
67740;BME280;54536;50.090;14.420;2023-07-20T03:59:59;99039.06;;;22.44;47.02
67740;BME280;54536;50.090;14.420;2023-07-20T04:02:25;99044.72;;;22.55;46.69
67740;BME280;54536;50.090;14.420;2023-07-20T04:04:51;99041.44;;;22.34;47.46
67740;BME280;54536;50.090;14.420;2023-07-20T04:07:17;99039.34;;;22.55;46.83
67740;BME280;54536;50.090;14.420;2023-07-20T04:09:44;99036.69;;;22.55;46.62
67740;BME280;54536;50.090;14.420;2023-07-20T04:12:10;99030.78;;;22.46;47.39
67740;BME280;54536;50.090;14.420;2023-07-20T04:14:36;99038.16;;;22.32;47.57
67740;BME280;54536;50.090;14.420;2023-07-20T04:17:02;99039.44;;;22.48;47.58
67740;BME280;54536;50.090;14.420;2023-07-20T04:19:29;99048.34;;;22.42;47.78
67740;BME280;54536;50.090;14.420;2023-07-20T04:21:55;99040.91;;;22.44;47.76
67740;BME280;54536;50.090;14.420;2023-07-20T04:24:24;99047.22;;;22.50;47.46
67740;BME280;54536;50.090;14.420;2023-07-20T04:26:50;99053.94;;;22.40;47.92
67740;BME280;54536;50.090;14.420;2023-07-20T04:29:16;99055.53;;;22.23;47.97
67740;BME280;54536;50.090;14.420;2023-07-20T04:31:42;99057.41;;;22.23;48.10
67740;BME280;54536;50.090;14.420;2023-07-20T04:34:08;99055.81;;;22.40;48.08
67740;BME280;54536;50.090;14.420;2023-07-20T04:36:35;99045.75;;;22.35;47.69
67740;BME280;54536;50.090;14.420;2023-07-20T04:39:01;99045.31;;;22.38;48.14
67740;BME280;54536;50.090;14.420;2023-07-20T04:41:27;99055.94;;;22.45;47.42
67740;BME280;54536;50.090;14.420;2023-07-20T04:43:53;99063.84;;;22.40;47.81
67740;BME280;54536;50.090;14.420;2023-07-20T04:46:20;99061.19;;;22.33;48.21
67740;BME280;54536;50.090;14.420;2023-07-20T04:48:47;99058.78;;;22.50;47.94
67740;BME280;54536;50.090;14.420;2023-07-20T04:51:14;99061.69;;;22.49;48.02
67740;BME280;54536;50.090;14.420;2023-07-20T04:53:40;99062.78;;;22.59;47.92
67740;BME280;54536;50.090;14.420;2023-07-20T04:56:06;99056.56;;;22.65;46.98
67740;BME280;54536;50.090;14.420;2023-07-20T04:58:32;99064.53;;;22.54;48.11
67740;BME280;54536;50.090;14.420;2023-07-20T05:00:59;99062.59;;;22.61;48.17
67740;BME280;54536;50.090;14.420;2023-07-20T05:03:25;99056.63;;;22.59;47.51
67740;BME280;54536;50.090;14.420;2023-07-20T05:05:51;99054.91;;;22.64;47.87
67740;BME280;54536;50.090;14.420;2023-07-20T05:08:18;99058.66;;;22.63;48.22
67740;BME280;54536;50.090;14.420;2023-07-20T05:10:44;99058.34;;;22.72;47.71
67740;BME280;54536;50.090;14.420;2023-07-20T05:13:10;99060.13;;;22.78;46.95
67740;BME280;54536;50.090;14.420;2023-07-20T05:15:37;99063.25;;;22.75;47.34
67740;BME280;54536;50.090;14.420;2023-07-20T05:18:03;99067.50;;;22.82;47.02
67740;BME280;54536;50.090;14.420;2023-07-20T05:20:29;99066.03;;;22.86;47.15
67740;BME280;54536;50.090;14.420;2023-07-20T05:22:57;99067.72;;;22.62;47.55
67740;BME280;54536;50.090;14.420;2023-07-20T05:25:24;99064.53;;;22.72;47.45
67740;BME280;54536;50.090;14.420;2023-07-20T05:27:51;99067.94;;;22.61;47.70
67740;BME280;54536;50.090;14.420;2023-07-20T05:30:18;99063.06;;;22.76;47.52
67740;BME280;54536;50.090;14.420;2023-07-20T05:32:44;99069.59;;;22.80;47.48
67740;BME280;54536;50.090;14.420;2023-07-20T05:35:17;99066.75;;;22.75;47.70
67740;BME280;54536;50.090;14.420;2023-07-20T05:37:45;99067.06;;;22.85;47.30
67740;BME280;54536;50.090;14.420;2023-07-20T05:40:12;99064.97;;;22.69;47.80
67740;BME280;54536;50.090;14.420;2023-07-20T05:42:38;99065.88;;;22.81;47.26
67740;BME280;54536;50.090;14.420;2023-07-20T05:45:05;99071.84;;;23.02;47.30
67740;BME280;54536;50.090;14.420;2023-07-20T05:47:32;99066.78;;;22.94;47.05
67740;BME280;54536;50.090;14.420;2023-07-20T05:49:58;99070.50;;;22.93;46.65
67740;BME280;54536;50.090;14.420;2023-07-20T05:52:24;99067.50;;;22.82;47.05
67740;BME280;54536;50.090;14.420;2023-07-20T05:54:51;99062.25;;;22.94;46.59
67740;BME280;54536;50.090;14.420;2023-07-20T05:57:17;99074.88;;;22.87;46.99
67740;BME280;54536;50.090;14.420;2023-07-20T05:59:43;99073.56;;;22.96;46.81
67740;BME280;54536;50.090;14.420;2023-07-20T06:02:10;99083.16;;;23.04;46.60
67740;BME280;54536;50.090;14.420;2023-07-20T06:04:39;99076.25;;;22.96;46.70
67740;BME280;54536;50.090;14.420;2023-07-20T06:07:05;99080.66;;;23.09;46.45
67740;BME280;54536;50.090;14.420;2023-07-20T06:09:34;99084.19;;;23.21;45.99
67740;BME280;54536;50.090;14.420;2023-07-20T06:12:00;99073.59;;;23.26;45.93
67740;BME280;54536;50.090;14.420;2023-07-20T06:14:26;99077.53;;;23.42;45.80
67740;BME280;54536;50.090;14.420;2023-07-20T06:16:52;99084.09;;;23.28;45.30
67740;BME280;54536;50.090;14.420;2023-07-20T06:19:19;99087.84;;;23.27;45.04
67740;BME280;54536;50.090;14.420;2023-07-20T06:21:45;99089.28;;;23.41;45.33
67740;BME280;54536;50.090;14.420;2023-07-20T06:24:11;99080.13;;;23.49;44.64
67740;BME280;54536;50.090;14.420;2023-07-20T06:26:37;99078.41;;;23.54;44.70
67740;BME280;54536;50.090;14.420;2023-07-20T06:29:06;99085.22;;;23.69;44.67
67740;BME280;54536;50.090;14.420;2023-07-20T06:31:34;99078.13;;;23.74;43.92
67740;BME280;54536;50.090;14.420;2023-07-20T06:34:01;99078.28;;;23.91;44.33
67740;BME280;54536;50.090;14.420;2023-07-20T06:36:27;99078.84;;;23.93;43.97
67740;BME280;54536;50.090;14.420;2023-07-20T06:38:54;99076.66;;;24.02;43.01
67740;BME280;54536;50.090;14.420;2023-07-20T06:41:21;99076.88;;;23.89;42.87
67740;BME280;54536;50.090;14.420;2023-07-20T06:43:48;99064.84;;;23.91;43.19
67740;BME280;54536;50.090;14.420;2023-07-20T06:46:14;99067.50;;;23.79;43.07
67740;BME280;54536;50.090;14.420;2023-07-20T06:48:40;99071.19;;;23.67;43.62
67740;BME280;54536;50.090;14.420;2023-07-20T06:51:06;99064.91;;;23.73;43.37
67740;BME280;54536;50.090;14.420;2023-07-20T06:53:33;99064.84;;;23.91;42.61
67740;BME280;54536;50.090;14.420;2023-07-20T06:55:59;99059.72;;;24.01;42.25
67740;BME280;54536;50.090;14.420;2023-07-20T06:58:25;99066.84;;;24.19;42.16
67740;BME280;54536;50.090;14.420;2023-07-20T07:00:52;99070.47;;;24.13;41.71
67740;BME280;54536;50.090;14.420;2023-07-20T07:03:18;99072.91;;;23.91;41.61
67740;BME280;54536;50.090;14.420;2023-07-20T07:05:44;99072.00;;;24.09;41.83
67740;BME280;54536;50.090;14.420;2023-07-20T07:08:12;99086.59;;;24.25;41.11
67740;BME280;54536;50.090;14.420;2023-07-20T07:10:41;99077.25;;;24.16;41.38
67740;BME280;54536;50.090;14.420;2023-07-20T07:13:07;99075.63;;;24.15;41.18
67740;BME280;54536;50.090;14.420;2023-07-20T07:15:33;99078.91;;;24.28;41.34
67740;BME280;54536;50.090;14.420;2023-07-20T07:18:00;99072.34;;;24.24;41.53
67740;BME280;54536;50.090;14.420;2023-07-20T07:20:26;99069.00;;;24.41;41.16
67740;BME280;54536;50.090;14.420;2023-07-20T07:22:52;99075.88;;;24.48;40.92
67740;BME280;54536;50.090;14.420;2023-07-20T07:25:19;99080.22;;;24.49;40.48
67740;BME280;54536;50.090;14.420;2023-07-20T07:27:45;99081.25;;;24.60;40.26
67740;BME280;54536;50.090;14.420;2023-07-20T07:30:12;99074.81;;;24.73;39.70
67740;BME280;54536;50.090;14.420;2023-07-20T07:32:39;99070.13;;;24.80;39.48
67740;BME280;54536;50.090;14.420;2023-07-20T07:35:05;99081.50;;;25.11;39.20
67740;BME280;54536;50.090;14.420;2023-07-20T07:37:31;99079.88;;;25.21;38.80
67740;BME280;54536;50.090;14.420;2023-07-20T07:39:57;99078.09;;;25.27;38.37
67740;BME280;54536;50.090;14.420;2023-07-20T07:42:24;99083.59;;;25.32;38.57
67740;BME280;54536;50.090;14.420;2023-07-20T07:44:50;99084.06;;;25.29;38.13
67740;BME280;54536;50.090;14.420;2023-07-20T07:47:16;99076.19;;;25.39;38.57
67740;BME280;54536;50.090;14.420;2023-07-20T07:49:42;99077.94;;;25.34;38.64
67740;BME280;54536;50.090;14.420;2023-07-20T07:52:08;99085.69;;;25.30;38.77
67740;BME280;54536;50.090;14.420;2023-07-20T07:54:34;99084.94;;;25.63;38.14
67740;BME280;54536;50.090;14.420;2023-07-20T07:57:01;99071.91;;;25.72;38.14
67740;BME280;54536;50.090;14.420;2023-07-20T07:59:27;99070.22;;;25.83;37.84
67740;BME280;54536;50.090;14.420;2023-07-20T08:01:54;99076.94;;;25.80;37.89
67740;BME280;54536;50.090;14.420;2023-07-20T08:04:20;99078.69;;;25.75;37.72
67740;BME280;54536;50.090;14.420;2023-07-20T08:06:47;99077.41;;;25.77;37.50
67740;BME280;54536;50.090;14.420;2023-07-20T08:09:13;99074.75;;;25.94;37.45
67740;BME280;54536;50.090;14.420;2023-07-20T08:11:40;99085.38;;;25.72;38.25
67740;BME280;54536;50.090;14.420;2023-07-20T08:14:06;99094.53;;;25.71;38.22
67740;BME280;54536;50.090;14.420;2023-07-20T08:16:32;99092.41;;;25.73;38.09
67740;BME280;54536;50.090;14.420;2023-07-20T08:18:59;99088.72;;;25.79;37.55
67740;BME280;54536;50.090;14.420;2023-07-20T08:21:25;99093.63;;;25.65;36.54
67740;BME280;54536;50.090;14.420;2023-07-20T08:23:51;99098.78;;;25.67;36.44
67740;BME280;54536;50.090;14.420;2023-07-20T08:26:18;99092.50;;;25.50;37.21
67740;BME280;54536;50.090;14.420;2023-07-20T08:28:44;99100.84;;;25.48;37.33
67740;BME280;54536;50.090;14.420;2023-07-20T08:31:12;99108.13;;;25.48;37.54
67740;BME280;54536;50.090;14.420;2023-07-20T08:33:38;99102.00;;;25.52;37.44
67740;BME280;54536;50.090;14.420;2023-07-20T08:36:04;99095.78;;;25.52;37.81
67740;BME280;54536;50.090;14.420;2023-07-20T08:38:31;99101.22;;;25.68;37.11
67740;BME280;54536;50.090;14.420;2023-07-20T08:40:58;99096.22;;;25.89;36.92
67740;BME280;54536;50.090;14.420;2023-07-20T08:43:28;99104.25;;;25.72;37.08
67740;BME280;54536;50.090;14.420;2023-07-20T08:45:55;99098.56;;;25.85;36.67
67740;BME280;54536;50.090;14.420;2023-07-20T08:48:22;99099.06;;;25.99;36.37
67740;BME280;54536;50.090;14.420;2023-07-20T08:50:52;99095.66;;;26.04;36.15
67740;BME280;54536;50.090;14.420;2023-07-20T08:53:22;99095.56;;;26.15;36.08
67740;BME280;54536;50.090;14.420;2023-07-20T08:55:51;99092.94;;;26.37;35.77
67740;BME280;54536;50.090;14.420;2023-07-20T08:58:20;99097.47;;;26.49;35.29
67740;BME280;54536;50.090;14.420;2023-07-20T09:00:49;99092.16;;;26.20;35.85
67740;BME280;54536;50.090;14.420;2023-07-20T09:03:16;99089.47;;;26.03;35.84
67740;BME280;54536;50.090;14.420;2023-07-20T09:05:44;99094.19;;;26.13;35.67
67740;BME280;54536;50.090;14.420;2023-07-20T09:08:10;99092.69;;;26.05;36.20
67740;BME280;54536;50.090;14.420;2023-07-20T09:10:37;99087.97;;;26.12;35.93
67740;BME280;54536;50.090;14.420;2023-07-20T09:13:05;99093.03;;;26.09;35.65
67740;BME280;54536;50.090;14.420;2023-07-20T09:15:32;99091.66;;;26.06;36.37
67740;BME280;54536;50.090;14.420;2023-07-20T09:18:01;99091.47;;;25.96;36.11
67740;BME280;54536;50.090;14.420;2023-07-20T09:20:32;99095.56;;;25.99;35.61
67740;BME280;54536;50.090;14.420;2023-07-20T09:22:58;99098.09;;;25.88;35.69
67740;BME280;54536;50.090;14.420;2023-07-20T09:25:26;99090.97;;;25.99;36.04
67740;BME280;54536;50.090;14.420;2023-07-20T09:27:53;99090.25;;;25.87;35.99
67740;BME280;54536;50.090;14.420;2023-07-20T09:30:25;99086.28;;;25.78;35.75
67740;BME280;54536;50.090;14.420;2023-07-20T09:32:51;99088.06;;;25.72;34.91
67740;BME280;54536;50.090;14.420;2023-07-20T09:35:19;99084.25;;;25.68;34.81
67740;BME280;54536;50.090;14.420;2023-07-20T09:37:52;99083.22;;;26.03;34.03
67740;BME280;54536;50.090;14.420;2023-07-20T09:40:19;99074.31;;;26.02;34.58
67740;BME280;54536;50.090;14.420;2023-07-20T09:42:46;99073.28;;;26.20;34.11
67740;BME280;54536;50.090;14.420;2023-07-20T09:45:14;99070.78;;;26.35;33.57
67740;BME280;54536;50.090;14.420;2023-07-20T09:47:40;99076.44;;;26.34;33.47
67740;BME280;54536;50.090;14.420;2023-07-20T09:50:08;99074.16;;;26.43;32.78
67740;BME280;54536;50.090;14.420;2023-07-20T09:52:42;99062.16;;;26.33;32.96
67740;BME280;54536;50.090;14.420;2023-07-20T09:55:13;99078.91;;;26.19;33.15
67740;BME280;54536;50.090;14.420;2023-07-20T09:57:39;99086.41;;;26.50;32.40
67740;BME280;54536;50.090;14.420;2023-07-20T10:00:07;99085.97;;;26.75;32.88
67740;BME280;54536;50.090;14.420;2023-07-20T10:02:45;99069.47;;;26.55;32.25
67740;BME280;54536;50.090;14.420;2023-07-20T10:05:13;99062.63;;;26.47;32.37
67740;BME280;54536;50.090;14.420;2023-07-20T10:07:47;99076.44;;;26.34;32.64
67740;BME280;54536;50.090;14.420;2023-07-20T10:10:16;99069.66;;;26.31;32.61
67740;BME280;54536;50.090;14.420;2023-07-20T10:12:48;99066.25;;;26.36;32.70
67740;BME280;54536;50.090;14.420;2023-07-20T10:15:23;99069.44;;;26.50;32.80
67740;BME280;54536;50.090;14.420;2023-07-20T10:20:35;99064.97;;;26.60;31.88
67740;BME280;54536;50.090;14.420;2023-07-20T10:23:03;99066.50;;;26.73;31.79
67740;BME280;54536;50.090;14.420;2023-07-20T10:25:30;99063.31;;;26.76;32.17
67740;BME280;54536;50.090;14.420;2023-07-20T10:27:58;99067.94;;;26.81;32.44
67740;BME280;54536;50.090;14.420;2023-07-20T10:30:26;99057.84;;;26.93;31.68
67740;BME280;54536;50.090;14.420;2023-07-20T10:32:53;99058.50;;;26.78;32.33
67740;BME280;54536;50.090;14.420;2023-07-20T10:35:19;99058.31;;;26.85;32.20
67740;BME280;54536;50.090;14.420;2023-07-20T10:37:51;99061.50;;;26.82;31.52
67740;BME280;54536;50.090;14.420;2023-07-20T10:42:50;99075.97;;;27.15;30.87
67740;BME280;54536;50.090;14.420;2023-07-20T10:45:17;99062.91;;;27.34;31.68
67740;BME280;54536;50.090;14.420;2023-07-20T10:47:47;99065.50;;;27.23;31.04
67740;BME280;54536;50.090;14.420;2023-07-20T10:50:13;99075.88;;;27.31;31.48
67740;BME280;54536;50.090;14.420;2023-07-20T10:52:42;99070.31;;;27.43;31.04
67740;BME280;54536;50.090;14.420;2023-07-20T10:55:16;99074.69;;;27.49;31.63
67740;BME280;54536;50.090;14.420;2023-07-20T10:57:42;99075.50;;;27.50;31.37
67740;BME280;54536;50.090;14.420;2023-07-20T11:00:19;99073.19;;;27.59;31.96
67740;BME280;54536;50.090;14.420;2023-07-20T11:02:49;99073.03;;;27.70;31.26
67740;BME280;54536;50.090;14.420;2023-07-20T11:05:48;99079.22;;;27.93;31.00
67740;BME280;54536;50.090;14.420;2023-07-20T11:08:40;99076.53;;;27.71;30.46
67740;BME280;54536;50.090;14.420;2023-07-20T11:11:27;99076.69;;;27.59;31.01
67740;BME280;54536;50.090;14.420;2023-07-20T11:14:01;99062.88;;;27.55;31.30
67740;BME280;54536;50.090;14.420;2023-07-20T11:16:43;99062.78;;;27.45;31.07
67740;BME280;54536;50.090;14.420;2023-07-20T11:19:20;99060.69;;;27.52;31.53
67740;BME280;54536;50.090;14.420;2023-07-20T11:21:50;99051.34;;;27.92;31.09
67740;BME280;54536;50.090;14.420;2023-07-20T11:24:18;99051.22;;;27.77;30.44
67740;BME280;54536;50.090;14.420;2023-07-20T11:26:50;99051.00;;;27.84;30.71
67740;BME280;54536;50.090;14.420;2023-07-20T11:29:17;99047.06;;;27.69;30.48
67740;BME280;54536;50.090;14.420;2023-07-20T11:31:45;99047.44;;;27.78;30.74
67740;BME280;54536;50.090;14.420;2023-07-20T11:34:17;99037.56;;;27.94;30.61
67740;BME280;54536;50.090;14.420;2023-07-20T11:36:49;99037.88;;;27.97;29.74
67740;BME280;54536;50.090;14.420;2023-07-20T11:39:17;99032.03;;;28.11;29.53
67740;BME280;54536;50.090;14.420;2023-07-20T11:41:49;99036.22;;;28.34;28.78
67740;BME280;54536;50.090;14.420;2023-07-20T11:44:19;99036.88;;;28.51;29.06
67740;BME280;54536;50.090;14.420;2023-07-20T11:47:05;99030.13;;;28.49;28.99
67740;BME280;54536;50.090;14.420;2023-07-20T11:49:38;99035.22;;;28.40;28.67
67740;BME280;54536;50.090;14.420;2023-07-20T11:52:13;99029.47;;;28.36;28.14
67740;BME280;54536;50.090;14.420;2023-07-20T11:54:40;99029.22;;;28.38;27.68
67740;BME280;54536;50.090;14.420;2023-07-20T11:57:14;99022.13;;;28.32;28.56
67740;BME280;54536;50.090;14.420;2023-07-20T12:00:01;99021.09;;;28.38;28.28
67740;BME280;54536;50.090;14.420;2023-07-20T12:02:30;99026.56;;;28.43;28.12
67740;BME280;54536;50.090;14.420;2023-07-20T12:04:57;99025.06;;;28.67;28.54
67740;BME280;54536;50.090;14.420;2023-07-20T12:07:27;99021.22;;;29.36;27.89
67740;BME280;54536;50.090;14.420;2023-07-20T12:10:26;99027.28;;;29.90;26.30
67740;BME280;54536;50.090;14.420;2023-07-20T12:12:54;99015.88;;;29.88;27.43
67740;BME280;54536;50.090;14.420;2023-07-20T12:15:26;99021.28;;;29.47;26.90
67740;BME280;54536;50.090;14.420;2023-07-20T12:17:57;99014.72;;;29.32;28.13
67740;BME280;54536;50.090;14.420;2023-07-20T12:23:00;99008.56;;;28.69;27.44
67740;BME280;54536;50.090;14.420;2023-07-20T12:25:52;99007.66;;;28.48;28.14
67740;BME280;54536;50.090;14.420;2023-07-20T12:28:21;99013.72;;;28.23;28.18
67740;BME280;54536;50.090;14.420;2023-07-20T12:30:47;99004.97;;;28.11;28.62
67740;BME280;54536;50.090;14.420;2023-07-20T12:33:22;99005.59;;;28.23;29.21
67740;BME280;54536;50.090;14.420;2023-07-20T12:35:49;99008.38;;;28.33;29.11
67740;BME280;54536;50.090;14.420;2023-07-20T12:38:16;99004.22;;;29.97;26.72
67740;BME280;54536;50.090;14.420;2023-07-20T12:40:42;99004.94;;;31.14;24.42
67740;BME280;54536;50.090;14.420;2023-07-20T12:43:08;99001.22;;;32.36;23.10
67740;BME280;54536;50.090;14.420;2023-07-20T12:45:34;98996.78;;;32.46;22.89
67740;BME280;54536;50.090;14.420;2023-07-20T12:48:01;98992.59;;;31.71;23.95
67740;BME280;54536;50.090;14.420;2023-07-20T12:50:27;98989.53;;;30.99;24.60
67740;BME280;54536;50.090;14.420;2023-07-20T12:52:53;98998.75;;;30.38;25.54
67740;BME280;54536;50.090;14.420;2023-07-20T12:55:19;99004.47;;;30.01;25.99
67740;BME280;54536;50.090;14.420;2023-07-20T12:57:46;98995.78;;;30.04;25.31
67740;BME280;54536;50.090;14.420;2023-07-20T13:00:14;99000.41;;;30.08;25.24
67740;BME280;54536;50.090;14.420;2023-07-20T13:02:42;98993.09;;;30.94;24.72
67740;BME280;54536;50.090;14.420;2023-07-20T13:05:09;98989.75;;;31.86;22.87
67740;BME280;54536;50.090;14.420;2023-07-20T13:07:39;98980.13;;;33.14;22.06
67740;BME280;54536;50.090;14.420;2023-07-20T13:10:06;98977.56;;;32.61;22.07
67740;BME280;54536;50.090;14.420;2023-07-20T13:12:35;98985.31;;;33.48;20.82
67740;BME280;54536;50.090;14.420;2023-07-20T13:15:07;98983.94;;;33.32;21.53
67740;BME280;54536;50.090;14.420;2023-07-20T13:17:35;98979.22;;;32.57;22.99
67740;BME280;54536;50.090;14.420;2023-07-20T13:20:03;98978.47;;;32.27;23.00